• Join FlightAware (Why Join?)
  • Login
  • US Flag 
07:53PM EDT


 

Airport Tracker/Info


-or-


 

Live Flight TrackerFlight Track Log ✈ BFF202 ✈ 01-Aug-2013 ✈ CYFB - CYXP

Flight Track Log - Related Links

Times and Time Zones

All times are in EDT time to prevent confusion due to time zone crossing. See the BFF202 flight status page for this flight to view local times or setup timezone preferences in your user account.

Time Position Orientation Groundspeed Altitude Reporting Facility
EDT Latitude Longitude Course Direction KTS MPH feet Rate Location/Type
05:49PM 63.8000 -68.5333 348° North 140 161 600  Level Montreal Center
05:50PM 63.8333 -68.5500 348° North 170 196 1,900 1,200 Climbing Montreal Center
05:51PM 63.8833 -68.5000 24° Northeast 180 207 3,100 1,140 Climbing Montreal Center
05:52PM 63.9167 -68.4667 24° Northeast 170 196 4,200 1,020 Climbing Montreal Center
05:53PM 63.9667 -68.3667 41° Northeast 180 207 5,200 960 Climbing Montreal Center
05:54PM 63.9833 -68.2833 65° Northeast 180 207 6,200 1,020 Climbing Montreal Center
05:55PM 64.0333 -68.2333 24° Northeast 190 219 7,300 1,080 Climbing Montreal Center
05:56PM 64.0833 -68.1833 24° Northeast 190 219 8,400 1,080 Climbing Montreal Center
05:57PM 64.1333 -68.1000 36° Northeast 190 219 9,500 960 Climbing Montreal Center
05:58PM 64.1833 -68.0500 24° Northeast 200 230 10,400 900 Climbing Montreal Center
05:59PM 64.2167 -68.0000 33° Northeast 200 230 11,300 660 Climbing Montreal Center
06:00PM 64.2833 -67.9333 23° Northeast 210 242 11,800 840 Climbing Montreal Center
06:01PM 64.3333 -67.8833 23° Northeast 220 253 13,100 960 Climbing Montreal Center
06:02PM 64.4000 -67.7833 33° Northeast 220 253 13,800 660 Climbing Montreal Center
06:03PM 64.4500 -67.7333 23° Northeast 220 253 14,500 540 Climbing Montreal Center
06:04PM 64.5167 -67.6833 18° North 220 253 14,900 240 Climbing Montreal Center
06:05PM 64.5500 -67.6333 33° Northeast 240 276 15,000  Climbing Montreal Center
06:06PM 64.6000 -67.3667 66° East 250 288 15,000  Level Edmonton Center
06:07PM 64.6833 -67.4667 333° Northwest 250 288 15,000  Level Montreal Center
06:08PM 64.7667 -67.4000 19° North 250 288 15,000  Level Montreal Center
06:09PM 64.8167 -67.3167 35° Northeast 250 288 15,100  Climbing Montreal Center
06:10PM 64.8667 -67.2500 30° Northeast 250 288 15,000 -60 Descending Montreal Center
06:11PM 64.9500 -67.1833 19° North 260 299 15,000  Level Montreal Center
06:12PM 65.0167 -67.0833 32° Northeast 260 299 15,000  Level Montreal Center
06:13PM 65.0667 -67.0333 23° Northeast 260 299 15,100  Climbing Montreal Center
06:14PM 65.1333 -66.9833 18° North 250 288 15,100  Level Montreal Center
06:16PM 65.1962 -66.8891 32° Northeast  Level FlightAware Approximate
06:23PM 65.5726 -66.4299 27° Northeast  Level FlightAware Approximate
06:24PM 65.6260 -66.3627 28° Northeast  Level FlightAware Approximate
06:25PM 65.6793 -66.2950 28° Northeast  Level FlightAware Approximate
06:26PM 65.7327 -66.2269 28° Northeast  Level FlightAware Approximate
06:27PM 65.7858 -66.1580 29° Northeast  Level FlightAware Approximate
06:28PM 65.8387 -66.0876 29° Northeast  Level FlightAware Approximate
06:29PM 65.8915 -66.0170 29° Northeast  Level FlightAware Approximate
06:30PM 65.9459 -65.9541 22° Northeast  Level FlightAware Approximate
06:31PM 66.0015 -65.8977 31° Northeast  Level FlightAware Approximate
06:32PM 66.0530 -65.8206 31° Northeast  Level FlightAware Approximate
06:33PM 66.1044 -65.7435 31° Northeast  Level FlightAware Approximate
06:34PM 66.1333 -65.7000 31° Northeast  Level FlightAware Approximate
06:35PM 66.1450 -65.7136 31° Northeast  Level Estimated
06:36PM 66.1450 -65.7136 31° Northeast  Level Estimated
06:37PM 66.1450 -65.7136 31° Northeast  Level Estimated
06:38PM 66.1450 -65.7136 31° Northeast  Level Estimated
06:39PM 66.1450 -65.7136 31° Northeast  Level Estimated
06:40PM 66.1450 -65.7136 31° Northeast  Level Estimated
06:41PM 66.1450 -65.7136 31° Northeast  Level Estimated
06:42PM 66.1450 -65.7136 31° Northeast  Level Estimated
06:43PM 66.1450 -65.7136 31° Northeast  Level Estimated
06:44PM 66.1450 -65.7136 31° Northeast  Level Estimated
06:45PM 66.1450 -65.7136 31° Northeast  Level Estimated
06:46PM 66.1450 -65.7136 31° Northeast  Level Estimated
06:47PM 66.1450 -65.7136 31° Northeast  Level Estimated
06:48PM 66.1450 -65.7136 31° Northeast  Level Estimated
06:49PM 66.1450 -65.7136 31° Northeast  Level Estimated